Time;durP1;ratioP1;P1;durP2;ratioP2;P2;SDS_P1;SDS_P2;PMS_P1;PMS_P2;Temp;Humidity;BMP_temperature;BMP_pressure;BME280_temperature;BME280_humidity;BME280_pressure;Samples;Min_cycle;Max_cycle;Signal;HPM_P1;HPM_P2
2022/12/12 00:01:47;;;;;;;33.67;18.37;;;;;;;-3.63;90.11;98740.62;1773647;80;25535;-74
2022/12/12 00:04:13;;;;;;;38.95;20.40;;;;;;;-3.64;90.11;98735.87;1773664;79;25463;-74
2022/12/12 00:06:39;;;;;;;36.50;19.55;;;;;;;-3.66;90.03;98730.55;1773593;79;26126;-74
2022/12/12 00:09:08;;;;;;;38.23;21.05;;;;;;;-3.67;90.04;98739.55;1762890;80;25694;-74
2022/12/12 00:11:35;;;;;;;34.27;19.57;;;;;;;-3.68;90.04;98733.98;1773720;80;32704;-73
2022/12/12 00:14:01;;;;;;;30.62;18.07;;;;;;;-3.71;90.05;98731.84;1773510;80;25549;-72
2022/12/12 00:16:28;;;;;;;28.23;16.23;;;;;;;-3.70;90.12;98739.52;1773577;79;25431;-72
2022/12/12 00:18:54;;;;;;;31.02;17.95;;;;;;;-3.71;90.15;98737.13;1773538;80;25582;-73
2022/12/12 00:21:25;;;;;;;28.67;16.65;;;;;;;-3.69;90.20;98744.30;1773613;79;25416;-73
2022/12/12 00:23:54;;;;;;;30.35;17.65;;;;;;;-3.69;90.23;98746.94;1773606;79;27528;-73
2022/12/12 00:26:25;;;;;;;34.67;17.83;;;;;;;-3.70;90.24;98743.48;1773751;79;25440;-73
2022/12/12 00:28:53;;;;;;;29.30;16.67;;;;;;;-3.68;90.30;98739.27;1773616;79;25390;-72
2022/12/12 00:31:21;;;;;;;29.98;16.95;;;;;;;-3.71;90.28;98735.30;1773555;79;25706;-72
2022/12/12 00:33:49;;;;;;;31.93;17.37;;;;;;;-3.70;90.30;98736.88;1773575;80;25554;-72
2022/12/12 00:36:21;;;;;;;35.43;16.42;;;;;;;-3.69;90.26;98741.13;1773605;79;27718;-74
2022/12/12 00:38:49;;;;;;;29.65;15.93;;;;;;;-3.70;90.24;98738.19;1773011;80;25801;-73
2022/12/12 00:41:16;;;;;;;31.62;18.37;;;;;;;-3.69;90.37;98731.08;1774794;80;25434;-72
2022/12/12 00:43:43;;;;;;;32.17;17.23;;;;;;;-3.68;90.38;98735.30;1778780;79;26224;-73
2022/12/12 00:46:16;;;;;;;30.65;18.27;;;;;;;-3.68;90.38;98729.48;1776911;80;25418;-71
2022/12/12 00:48:43;;;;;;;28.30;16.80;;;;;;;-3.68;90.34;98722.88;1772024;80;27466;-72
2022/12/12 00:51:15;;;;;;;37.30;19.07;;;;;;;-3.69;90.34;98728.44;1772150;80;25725;-73
2022/12/12 00:53:41;;;;;;;28.05;17.10;;;;;;;-3.70;90.33;98725.52;1771290;80;25434;-73
2022/12/12 00:56:08;;;;;;;31.82;17.77;;;;;;;-3.68;90.38;98730.02;1771101;80;25485;-73
2022/12/12 00:58:37;;;;;;;29.67;16.15;;;;;;;-3.69;90.34;98735.84;1771164;80;25531;-73
2022/12/12 01:01:14;;;;;;;30.25;16.95;;;;;;;-3.70;90.28;98731.59;1771217;81;28042;-73
2022/12/12 01:03:43;;;;;;;29.32;16.37;;;;;;;-3.73;90.28;98728.13;1774282;80;25753;-74
2022/12/12 01:06:10;;;;;;;27.40;15.53;;;;;;;-3.72;90.21;98727.62;1773593;80;25373;-74
2022/12/12 01:08:39;;;;;;;28.80;15.78;;;;;;;-3.74;90.25;98727.08;1778556;80;25514;-73
2022/12/12 01:11:08;;;;;;;27.48;15.40;;;;;;;-3.74;90.16;98718.63;1780132;79;25621;-72
2022/12/12 01:13:36;;;;;;;27.50;15.53;;;;;;;-3.74;90.22;98724.44;1779912;80;27471;-73
2022/12/12 01:16:06;;;;;;;32.03;16.90;;;;;;;-3.74;90.32;98720.47;1778218;79;25606;-73
2022/12/12 01:18:33;;;;;;;26.48;16.25;;;;;;;-3.74;90.33;98716.52;1772151;79;25379;-73
2022/12/12 01:21:00;;;;;;;27.82;15.30;;;;;;;-3.74;90.34;98707.27;1772598;80;25460;-73
2022/12/12 01:23:27;;;;;;;28.65;15.48;;;;;;;-3.72;90.38;98699.34;1774753;80;25641;-73
2022/12/12 01:26:08;;;;;;;27.45;15.23;;;;;;;-3.72;90.41;98698.55;1772676;80;27654;-73
2022/12/12 01:28:36;;;;;;;29.60;15.55;;;;;;;-3.73;90.35;98697.73;1772678;80;25870;-73
2022/12/12 01:31:03;;;;;;;29.52;16.25;;;;;;;-3.74;90.29;98699.34;1776136;79;25391;-73
2022/12/12 01:33:29;;;;;;;25.82;14.30;;;;;;;-3.75;90.22;98699.84;1771815;80;25475;-73
2022/12/12 01:35:56;;;;;;;30.02;15.63;;;;;;;-3.75;90.37;98699.84;1774745;80;25565;-73
2022/12/12 01:38:25;;;;;;;22.35;13.93;;;;;;;-3.72;90.45;98697.23;1773196;80;27441;-72
2022/12/12 01:40:54;;;;;;;31.02;15.20;;;;;;;-3.73;90.35;98688.48;1775863;80;25724;-72
2022/12/12 01:43:23;;;;;;;23.83;14.58;;;;;;;-3.74;90.34;98690.87;1775691;80;25615;-72
2022/12/12 01:46:04;;;;;;;26.65;14.65;;;;;;;-3.73;90.41;98689.80;1763802;80;25897;-72
2022/12/12 01:48:36;;;;;;;26.27;15.13;;;;;;;-3.74;90.30;98681.63;1775236;80;25534;-72
2022/12/12 01:51:07;;;;;;;28.47;15.03;;;;;;;-3.77;90.26;98680.81;1779369;80;27064;-71
2022/12/12 01:53:36;;;;;;;25.25;14.00;;;;;;;-3.78;90.33;98684.48;1779635;80;25363;-71
2022/12/12 01:56:07;;;;;;;26.05;15.03;;;;;;;-3.77;90.37;98683.45;1778774;79;25515;-71
2022/12/12 01:58:34;;;;;;;31.70;15.78;;;;;;;-3.77;90.53;98681.59;1771850;80;25547;-71
2022/12/12 02:01:01;;;;;;;25.85;13.95;;;;;;;-3.77;90.53;98685.56;1778163;80;25440;-71
2022/12/12 02:03:28;;;;;;;26.55;14.78;;;;;;;-3.76;90.57;98687.70;1774179;79;27557;-71
2022/12/12 02:06:01;;;;;;;27.77;14.73;;;;;;;-3.74;90.66;98697.48;1771161;80;25457;-71
2022/12/12 02:08:29;;;;;;;25.80;14.78;;;;;;;-3.74;90.63;98697.48;1774536;80;25556;-71
2022/12/12 02:10:56;;;;;;;35.83;18.57;;;;;;;-3.73;90.72;98700.38;1760702;80;25610;-70
2022/12/12 02:13:27;;;;;;;27.85;16.02;;;;;;;-3.72;90.54;98698.55;1759899;80;25548;-70
2022/12/12 02:16:04;;;;;;;23.10;13.70;;;;;;;-3.73;90.72;98700.91;1776820;80;28123;-70
2022/12/12 02:18:55;;;;;;;30.45;14.23;;;;;;;-3.69;90.79;98700.69;1774559;80;25548;-70
2022/12/12 02:22:03;;;;;;;26.20;14.10;;;;;;;-3.69;90.81;98692.23;1742626;82;25576;-70
2022/12/12 02:24:46;;;;;;;26.93;15.30;;;;;;;-3.68;90.79;98689.05;1725645;82;26182;-69
2022/12/12 02:27:42;;;;;;;30.00;15.68;;;;;;;-3.67;90.85;98691.44;1734129;82;25739;-69
2022/12/12 02:30:22;;;;;;;35.10;16.97;;;;;;;-3.67;90.82;98692.77;1733939;82;27530;-69
2022/12/12 02:33:09;;;;;;;29.32;14.85;;;;;;;-3.65;90.84;98695.16;1703505;84;25688;-69
2022/12/12 02:36:06;;;;;;;28.52;15.13;;;;;;;-3.65;90.80;98695.16;1650830;86;25704;-68
2022/12/12 02:39:00;;;;;;;28.87;14.98;;;;;;;-3.65;90.91;98697.27;1648972;86;25528;-68
2022/12/12 02:41:44;;;;;;;31.62;15.15;;;;;;;-3.63;91.08;98699.13;1648445;87;25521;-68
2022/12/12 02:44:30;;;;;;;31.87;16.25;;;;;;;-3.60;91.17;98695.97;1648640;87;27570;-68
2022/12/12 02:47:11;;;;;;;27.32;16.20;;;;;;;-3.60;91.17;98697.83;1648526;87;25700;-68
2022/12/12 02:49:58;;;;;;;28.55;15.48;;;;;;;-3.58;91.11;98701.02;1648430;87;25721;-68
2022/12/12 02:52:25;;;;;;;28.07;14.63;;;;;;;-3.58;91.05;98697.05;1647134;87;26164;-68
2022/12/12 02:54:51;;;;;;;27.42;14.30;;;;;;;-3.56;91.07;98698.91;1613997;88;25603;-68
2022/12/12 02:57:25;;;;;;;24.37;13.05;;;;;;;-3.54;91.01;98694.18;1647611;87;27578;-68
2022/12/12 03:00:00;;;;;;;23.95;13.90;;;;;;;-3.56;90.87;98690.97;1628303;87;25758;-68
2022/12/12 03:02:35;;;;;;;26.68;13.70;;;;;;;-3.55;90.71;98691.25;1627053;88;25289;-68
2022/12/12 03:08:33;;;;;;;28.75;15.95;;;;;;;-3.54;90.70;98692.86;1562807;91;25519;-68
2022/12/12 03:11:07;;;;;;;25.75;14.83;;;;;;;-3.58;90.57;98685.94;1556698;92;27499;-67
2022/12/12 03:13:53;;;;;;;33.18;17.25;;;;;;;-3.58;90.55;98688.58;1568905;91;26419;-67
2022/12/12 03:17:00;;;;;;;27.30;13.90;;;;;;;-3.58;90.54;98685.16;1622453;87;25475;-67
2022/12/12 03:19:41;;;;;;;25.35;14.30;;;;;;;-3.59;90.57;98686.22;1622144;88;25540;-67
2022/12/12 03:22:12;;;;;;;28.62;15.70;;;;;;;-3.60;90.58;98681.97;1621715;88;25643;-67
2022/12/12 03:25:18;;;;;;;27.55;15.38;;;;;;;-3.60;90.64;98685.41;1622166;88;27510;-67
2022/12/12 03:27:51;;;;;;;25.65;14.15;;;;;;;-3.60;90.64;98680.66;1622070;88;25425;-67
2022/12/12 03:30:20;;;;;;;32.28;15.90;;;;;;;-3.60;90.63;98679.33;1621992;88;25687;-67
2022/12/12 03:33:20;;;;;;;31.15;15.55;;;;;;;-3.58;90.67;98678.55;1622422;88;25560;-67
2022/12/12 03:36:05;;;;;;;43.38;20.08;;;;;;;-3.59;90.63;98675.11;1622716;87;25799;-67
2022/12/12 03:38:36;;;;;;;51.48;24.18;;;;;;;-3.59;90.64;98674.33;1646051;83;28164;-66
2022/12/12 03:41:08;;;;;;;35.98;18.35;;;;;;;-3.59;90.61;98674.33;1697084;84;25560;-67
2022/12/12 03:43:42;;;;;;;31.95;16.10;;;;;;;-3.59;90.59;98676.97;1673726;84;25535;-67
2022/12/12 03:46:32;;;;;;;22.58;13.40;;;;;;;-3.60;90.58;98677.47;1635871;87;25579;-67
2022/12/12 03:49:10;;;;;;;23.18;12.88;;;;;;;-3.60;90.57;98672.19;1644528;86;25555;-66
2022/12/12 03:51:47;;;;;;;23.47;12.25;;;;;;;-3.59;90.64;98680.94;1644388;87;29640;-66
2022/12/12 03:54:28;;;;;;;22.45;12.23;;;;;;;-3.61;90.61;98683.02;1644047;87;25674;-66
2022/12/12 03:57:05;;;;;;;21.30;11.35;;;;;;;-3.61;90.65;98683.02;1643755;87;25499;-66
2022/12/12 03:59:52;;;;;;;20.55;12.07;;;;;;;-3.63;90.68;98677.98;1644142;86;25543;-66
2022/12/12 04:02:39;;;;;;;27.17;13.15;;;;;;;-3.63;90.72;98679.30;1640434;87;25524;-66
2022/12/12 04:05:25;;;;;;;21.17;12.00;;;;;;;-3.62;90.80;98675.62;1643903;87;27535;-66
2022/12/12 04:08:05;;;;;;;25.10;12.90;;;;;;;-3.62;90.86;98668.23;1643823;87;25455;-66
2022/12/12 04:13:44;;;;;;;20.97;12.40;;;;;;;-3.64;90.86;98664.52;1673344;84;25663;-66
2022/12/12 04:16:15;;;;;;;20.32;11.25;;;;;;;-3.65;90.89;98666.87;1737647;81;25406;-66
2022/12/12 04:19:09;;;;;;;20.45;12.23;;;;;;;-3.66;90.94;98660.52;1742388;80;25872;-66
2022/12/12 04:24:50;;;;;;;23.90;12.85;;;;;;;-3.65;91.10;98658.95;1733569;82;25627;-66
2022/12/12 04:27:40;;;;;;;22.17;11.40;;;;;;;-3.65;91.18;98658.16;1680703;84;25640;-66
2022/12/12 04:30:16;;;;;;;25.37;12.75;;;;;;;-3.64;91.20;98658.44;1671133;85;25451;-66
2022/12/12 04:33:11;;;;;;;22.75;12.28;;;;;;;-3.62;91.33;98649.72;1683940;85;27494;-66
2022/12/12 04:35:45;;;;;;;20.23;11.18;;;;;;;-3.63;91.35;98651.55;1649523;87;25633;-65
2022/12/12 04:38:16;;;;;;;21.95;11.57;;;;;;;-3.60;91.40;98642.33;1649522;87;25444;-66
2022/12/12 04:40:48;;;;;;;19.67;11.60;;;;;;;-3.60;91.44;98639.15;1649566;87;25535;-65
2022/12/12 04:43:28;;;;;;;19.92;11.45;;;;;;;-3.60;91.37;98637.83;1649538;87;25566;-66
2022/12/12 04:45:59;;;;;;;21.45;11.60;;;;;;;-3.60;91.47;98637.83;1649592;87;28130;-66
2022/12/12 04:48:36;;;;;;;21.90;12.85;;;;;;;-3.59;91.54;98634.14;1627314;87;25527;-65
2022/12/12 04:51:06;;;;;;;21.75;12.45;;;;;;;-3.57;91.65;98637.33;1649280;87;25506;-66
2022/12/12 04:53:38;;;;;;;21.52;12.58;;;;;;;-3.57;91.77;98632.03;1649544;87;25631;-66
2022/12/12 04:56:09;;;;;;;22.07;12.13;;;;;;;-3.54;91.72;98637.86;1629220;88;25515;-66
2022/12/12 04:58:38;;;;;;;24.85;12.82;;;;;;;-3.52;91.91;98641.03;1631053;87;29901;-66
2022/12/12 05:01:28;;;;;;;21.68;12.82;;;;;;;-3.49;92.01;98635.23;1630788;87;25502;-66
2022/12/12 05:04:02;;;;;;;20.72;12.00;;;;;;;-3.48;92.00;98635.52;1660091;84;25491;-66
2022/12/12 05:06:46;;;;;;;22.93;12.70;;;;;;;-3.47;92.15;98627.33;1662620;83;26192;-66
2022/12/12 05:09:15;;;;;;;21.17;12.45;;;;;;;-3.45;92.19;98629.19;1697571;84;25517;-66
2022/12/12 05:11:42;;;;;;;22.02;12.07;;;;;;;-3.43;92.25;98630.25;1751696;81;28251;-66
2022/12/12 05:14:14;;;;;;;23.02;12.28;;;;;;;-3.42;92.37;98624.71;1751564;81;25588;-66
2022/12/12 05:16:48;;;;;;;23.52;13.45;;;;;;;-3.39;92.42;98626.84;1751685;81;25569;-66
2022/12/12 05:19:15;;;;;;;24.37;14.43;;;;;;;-3.36;92.46;98627.38;1751692;81;25627;-65
2022/12/12 05:21:42;;;;;;;22.58;12.55;;;;;;;-3.34;92.62;98627.38;1751791;81;25596;-65
2022/12/12 05:24:10;;;;;;;21.23;12.23;;;;;;;-3.32;92.78;98623.97;1751732;81;27493;-65
2022/12/12 05:26:38;;;;;;;22.73;12.88;;;;;;;-3.27;92.87;98621.84;1751683;81;25759;-65
2022/12/12 05:29:05;;;;;;;21.17;12.15;;;;;;;-3.26;92.99;98620.27;1751774;81;25538;-65
2022/12/12 05:31:31;;;;;;;22.82;12.10;;;;;;;-3.22;93.07;98615.26;1751724;81;25544;-65
2022/12/12 05:33:57;;;;;;;24.18;12.65;;;;;;;-3.19;93.21;98611.56;1751756;81;25601;-65
2022/12/12 05:36:24;;;;;;;22.05;12.85;;;;;;;-3.15;93.25;98612.38;1751746;81;27482;-65
2022/12/12 05:38:51;;;;;;;24.82;12.05;;;;;;;-3.11;93.37;98616.11;1751609;81;26151;-64
2022/12/12 05:41:17;;;;;;;23.75;13.30;;;;;;;-3.09;93.48;98610.81;1751739;81;25425;-64
2022/12/12 05:43:43;;;;;;;23.67;12.18;;;;;;;-3.07;93.51;98603.94;1751717;81;26133;-64
2022/12/12 05:46:09;;;;;;;20.77;11.93;;;;;;;-3.03;93.58;98611.10;1751746;81;25535;-64
2022/12/12 05:48:35;;;;;;;22.45;12.00;;;;;;;-3.04;93.64;98601.56;1682746;83;28457;-65
2022/12/12 05:51:04;;;;;;;20.12;11.70;;;;;;;-2.96;93.58;98607.39;1760229;81;25583;-64
2022/12/12 05:53:31;;;;;;;23.47;12.63;;;;;;;-2.96;93.67;98598.95;1758466;81;25394;-64
2022/12/12 05:55:57;;;;;;;20.85;11.22;;;;;;;-2.94;93.65;98604.77;1730751;81;25672;-64
2022/12/12 05:58:23;;;;;;;21.48;12.33;;;;;;;-2.92;93.68;98597.90;1751737;81;25437;-63
2022/12/12 06:00:52;;;;;;;20.80;12.55;;;;;;;-2.90;93.74;98596.56;1751736;81;27651;-64
2022/12/12 06:03:19;;;;;;;19.52;11.73;;;;;;;-2.88;93.91;98601.09;1751845;81;25624;-64
2022/12/12 06:05:46;;;;;;;22.62;12.28;;;;;;;-2.87;93.89;98600.02;1751732;81;25611;-64
2022/12/12 06:08:13;;;;;;;23.60;13.00;;;;;;;-2.85;93.99;98601.08;1730137;81;25725;-64
2022/12/12 06:10:40;;;;;;;23.18;13.20;;;;;;;-2.85;94.15;98605.84;1752049;81;25391;-64
2022/12/12 06:13:08;;;;;;;23.87;11.93;;;;;;;-2.83;94.07;98614.84;1752011;81;26936;-64
2022/12/12 06:15:38;;;;;;;22.15;12.43;;;;;;;-2.79;94.12;98616.43;1751901;81;25351;-63
2022/12/12 06:18:04;;;;;;;23.25;13.22;;;;;;;-2.78;94.18;98613.52;1665685;85;25548;-64
2022/12/12 06:20:30;;;;;;;24.20;13.10;;;;;;;-2.75;94.27;98615.66;1698100;84;25632;-64
2022/12/12 06:22:58;;;;;;;21.75;11.75;;;;;;;-2.72;94.35;98617.00;1698183;84;25435;-64
2022/12/12 06:25:24;;;;;;;20.95;12.10;;;;;;;-2.72;94.45;98617.78;1698126;84;27544;-64
2022/12/12 06:27:50;;;;;;;21.62;11.90;;;;;;;-2.67;94.53;98624.95;1677810;85;25972;-64
2022/12/12 06:30:17;;;;;;;21.20;11.63;;;;;;;-2.67;94.57;98620.44;1698610;84;25606;-64
2022/12/12 06:32:43;;;;;;;21.42;12.15;;;;;;;-2.64;94.62;98613.80;1698553;84;27724;-64
2022/12/12 06:35:11;;;;;;;23.47;12.18;;;;;;;-2.60;94.69;98616.75;1666253;85;25624;-64
2022/12/12 06:37:39;;;;;;;21.17;11.85;;;;;;;-2.57;94.75;98619.66;1698613;84;27428;-65
2022/12/12 06:40:09;;;;;;;27.35;13.05;;;;;;;-2.57;94.87;98609.58;1677987;85;25790;-64
2022/12/12 06:42:35;;;;;;;21.25;11.97;;;;;;;-2.54;94.83;98613.82;1698298;84;25622;-64
2022/12/12 06:45:03;;;;;;;21.35;11.88;;;;;;;-2.51;94.88;98613.30;1698015;84;25599;-64
2022/12/12 06:47:29;;;;;;;19.75;11.10;;;;;;;-2.47;94.91;98610.41;1698126;84;25423;-65
2022/12/12 06:49:55;;;;;;;19.62;10.55;;;;;;;-2.42;94.92;98614.89;1677762;85;27464;-65
2022/12/12 06:52:21;;;;;;;28.77;12.50;;;;;;;-2.39;94.93;98623.63;1698158;84;25955;-65
2022/12/12 06:54:48;;;;;;;23.50;12.30;;;;;;;-2.38;94.98;98620.45;1677819;85;25441;-66
2022/12/12 06:57:15;;;;;;;23.27;12.53;;;;;;;-2.34;95.00;98617.55;1698568;84;25495;-66
2022/12/12 06:59:41;;;;;;;32.80;14.13;;;;;;;-2.32;94.99;98619.40;1698136;84;25630;-64
2022/12/12 07:02:11;;;;;;;24.52;14.45;;;;;;;-2.28;95.01;98618.61;1698090;84;29735;-65
2022/12/12 07:04:38;;;;;;;23.60;13.45;;;;;;;-2.24;95.10;98620.73;1677562;85;27392;-65
2022/12/12 07:07:04;;;;;;;24.10;13.53;;;;;;;-2.22;95.12;98620.72;1698006;84;25701;-65
2022/12/12 07:09:30;;;;;;;29.87;13.93;;;;;;;-2.20;95.17;98617.81;1695676;84;25433;-65
2022/12/12 07:11:56;;;;;;;24.87;13.73;;;;;;;-2.19;95.28;98614.90;1695715;83;31866;-65
2022/12/12 07:14:24;;;;;;;25.85;14.05;;;;;;;-2.15;95.37;98621.78;1695963;83;27466;-65
2022/12/12 07:16:50;;;;;;;26.12;13.62;;;;;;;-2.13;95.38;98616.50;1695500;83;25723;-65
2022/12/12 07:19:16;;;;;;;25.72;14.85;;;;;;;-2.13;95.39;98623.13;1695416;84;25590;-65
2022/12/12 07:21:42;;;;;;;28.57;15.25;;;;;;;-2.08;95.52;98631.58;1695459;84;27717;-65
2022/12/12 07:24:08;;;;;;;30.50;15.17;;;;;;;-2.05;95.58;98634.23;1695740;83;30615;-65
2022/12/12 07:26:34;;;;;;;27.35;15.43;;;;;;;-2.04;95.63;98633.97;1674093;84;27628;-65
2022/12/12 07:29:04;;;;;;;26.87;14.83;;;;;;;-2.01;95.69;98639.25;1695592;83;25574;-65
2022/12/12 07:31:31;;;;;;;26.27;16.00;;;;;;;-1.99;95.72;98638.45;1695142;83;25455;-64
2022/12/12 07:33:58;;;;;;;30.32;15.55;;;;;;;-1.95;95.76;98638.20;1655713;86;25536;-64
2022/12/12 07:36:25;;;;;;;32.83;15.18;;;;;;;-1.93;95.92;98625.47;1655766;86;25585;-64
2022/12/12 07:38:52;;;;;;;26.90;14.45;;;;;;;-1.91;95.85;98628.64;1655734;86;27495;-65
2022/12/12 07:41:20;;;;;;;26.95;15.65;;;;;;;-1.90;96.10;98640.30;1655626;86;25632;-64
2022/12/12 07:43:48;;;;;;;26.35;15.63;;;;;;;-1.86;95.98;98634.48;1655985;86;25550;-65
2022/12/12 07:46:20;;;;;;;24.77;15.50;;;;;;;-1.82;96.10;98631.55;1655757;86;25493;-68
2022/12/12 07:48:47;;;;;;;28.55;16.20;;;;;;;-1.78;96.27;98634.72;1655105;86;25605;-62
2022/12/12 07:51:14;;;;;;;29.12;16.20;;;;;;;-1.74;96.24;98633.66;1655928;86;27559;-61
2022/12/12 08:09:25;;;;;;;27.60;15.83;;;;;;;-1.52;96.36;98629.36;1775465;77;25764;-63
2022/12/12 08:11:57;;;;;;;31.75;17.27;;;;;;;-1.47;96.35;98631.21;1783759;80;25503;-63
2022/12/12 08:14:25;;;;;;;25.95;15.65;;;;;;;-1.47;96.32;98630.67;1783704;80;25551;-63
2022/12/12 08:16:51;;;;;;;25.50;14.53;;;;;;;-1.44;96.39;98632.00;1783398;80;27482;-63
2022/12/12 08:19:18;;;;;;;29.32;16.57;;;;;;;-1.40;96.46;98633.04;1783668;80;25361;-63
2022/12/12 08:21:45;;;;;;;29.25;15.75;;;;;;;-1.37;96.53;98637.80;1783807;80;25602;-64
2022/12/12 08:24:15;;;;;;;27.13;16.35;;;;;;;-1.36;96.41;98634.89;1783757;80;26079;-63
2022/12/12 08:26:43;;;;;;;29.02;16.50;;;;;;;-1.33;96.41;98633.02;1783956;80;25566;-63
2022/12/12 08:29:10;;;;;;;30.02;18.25;;;;;;;-1.28;96.42;98635.38;1783781;80;27455;-64
2022/12/12 08:31:39;;;;;;;31.05;19.27;;;;;;;-1.25;96.51;98638.28;1783676;80;25621;-63
2022/12/12 08:36:47;;;;;;;31.57;18.15;;;;;;;-1.14;96.56;98638.52;1925092;74;34573;-65
2022/12/12 08:39:15;;;;;;;32.33;16.90;;;;;;;-1.20;96.66;98634.83;1894954;75;25397;-66
2022/12/12 08:41:48;;;;;;;29.00;16.73;;;;;;;-1.16;96.69;98633.20;1894921;75;27588;-66
2022/12/12 08:44:18;;;;;;;24.55;14.63;;;;;;;-1.13;96.72;98636.65;1861920;75;25363;-67
2022/12/12 08:46:45;;;;;;;28.38;15.93;;;;;;;-1.08;96.80;98633.19;1894917;75;25382;-66
2022/12/12 08:49:12;;;;;;;29.52;16.67;;;;;;;-1.04;96.84;98639.02;1894865;75;25433;-65
2022/12/12 08:51:40;;;;;;;23.85;14.85;;;;;;;-1.03;96.76;98629.97;1790252;78;25518;-66
2022/12/12 08:54:07;;;;;;;25.75;14.60;;;;;;;-0.99;96.82;98636.84;1855728;77;27451;-65
2022/12/12 08:56:33;;;;;;;35.30;17.25;;;;;;;-0.95;96.83;98636.58;1820963;78;25691;-63
2022/12/12 08:59:00;;;;;;;26.07;15.18;;;;;;;-0.91;96.87;98640.80;1854146;77;26173;-64
2022/12/12 09:01:26;;;;;;;27.48;14.53;;;;;;;-0.90;96.84;98637.88;1788145;78;25747;-65
2022/12/12 09:03:55;;;;;;;25.37;12.82;;;;;;;-0.88;96.84;98639.72;1821101;77;25676;-64
2022/12/12 09:06:23;;;;;;;25.55;13.85;;;;;;;-0.83;96.89;98634.93;1820865;78;28197;-64
2022/12/12 09:08:50;;;;;;;20.08;12.00;;;;;;;-0.80;96.88;98640.48;1854176;77;26280;-64
2022/12/12 09:11:17;;;;;;;24.30;14.05;;;;;;;-0.76;96.83;98632.75;1821275;78;25607;-64
2022/12/12 09:13:44;;;;;;;22.85;14.55;;;;;;;-0.71;96.88;98630.61;1855627;77;25598;-64
2022/12/12 09:16:11;;;;;;;22.22;12.45;;;;;;;-0.67;96.95;98628.44;1790051;78;25402;-65
2022/12/12 09:18:39;;;;;;;23.60;14.73;;;;;;;-0.63;96.83;98633.98;1855676;77;27621;-64
2022/12/12 09:21:06;;;;;;;24.18;14.30;;;;;;;-0.59;96.78;98639.03;1822010;78;25794;-64
2022/12/12 09:23:33;;;;;;;23.80;14.45;;;;;;;-0.57;96.79;98640.87;1855643;77;25625;-65
2022/12/12 09:26:08;;;;;;;28.85;14.13;;;;;;;-0.52;96.84;98640.05;1822087;78;25591;-64
2022/12/12 09:28:34;;;;;;;19.98;12.43;;;;;;;-0.52;96.66;98634.73;1855720;77;25466;-64
2022/12/12 09:31:05;;;;;;;22.32;13.03;;;;;;;-0.50;96.53;98632.05;1789831;78;27554;-64
2022/12/12 09:33:32;;;;;;;18.27;10.90;;;;;;;-0.49;96.52;98628.87;1853888;77;25696;-65
2022/12/12 09:36:01;;;;;;;19.10;12.55;;;;;;;-0.46;96.38;98629.63;1817433;78;25371;-65
2022/12/12 09:38:28;;;;;;;16.20;10.88;;;;;;;-0.43;96.52;98634.39;1842323;77;25218;-65
2022/12/12 09:41:02;;;;;;;17.25;9.98;;;;;;;-0.38;96.51;98637.80;1807420;79;25418;-64
2022/12/12 09:43:40;;;;;;;19.77;10.80;;;;;;;-0.34;96.38;98633.27;1882104;76;27486;-64
2022/12/12 09:46:21;;;;;;;14.63;9.58;;;;;;;-0.31;96.30;98627.41;1880912;76;25520;-63
2022/12/12 09:48:47;;;;;;;18.95;9.93;;;;;;;-0.27;96.45;98635.88;1849160;76;25369;-65
2022/12/12 09:51:14;;;;;;;18.10;10.90;;;;;;;-0.22;96.10;98643.03;1840100;78;25368;-63
2022/12/12 09:53:43;;;;;;;17.20;10.10;;;;;;;-0.21;95.93;98648.58;1882030;76;25354;-64
2022/12/12 09:56:39;;;;;;;20.32;10.03;;;;;;;-0.18;95.91;98648.03;1806746;79;27530;-61
2022/12/12 09:59:38;;;;;;;20.45;10.03;;;;;;;-0.18;95.82;98649.36;1880807;76;25365;-65
2022/12/12 10:02:30;;;;;;;18.07;9.68;;;;;;;-0.13;95.77;98649.86;1807447;79;25597;-63
2022/12/12 10:05:05;;;;;;;20.92;10.50;;;;;;;-0.12;95.46;98648.77;1881487;76;25557;-62
2022/12/12 10:08:05;;;;;;;17.87;9.60;;;;;;;-0.08;95.55;98655.92;1805521;79;25549;-62
2022/12/12 10:10:37;;;;;;;16.80;9.08;;;;;;;-0.04;95.73;98659.59;1882089;76;27643;-62
2022/12/12 10:13:08;;;;;;;17.75;8.48;;;;;;;0.01;95.65;98656.66;1881992;76;25511;-62
2022/12/12 10:15:41;;;;;;;14.20;8.65;;;;;;;0.02;95.39;98652.39;1806669;79;25613;-62
2022/12/12 10:18:14;;;;;;;26.15;11.38;;;;;;;0.02;94.99;98660.37;1882101;76;25575;-63
2022/12/12 10:20:46;;;;;;;16.23;8.23;;;;;;;0.04;95.17;98659.55;1882152;76;25383;-65
2022/12/12 10:23:33;;;;;;;20.90;9.00;;;;;;;0.05;94.86;98655.83;1839745;77;27536;-62
2022/12/12 10:26:07;;;;;;;19.55;9.25;;;;;;;0.05;94.57;98652.36;1882097;76;25352;-61
2022/12/12 10:28:34;;;;;;;17.62;10.13;;;;;;;0.05;94.63;98657.16;1882242;76;25558;-62
2022/12/12 10:31:25;;;;;;;19.52;9.40;;;;;;;0.07;94.73;98654.20;1882045;76;25530;-61
2022/12/12 10:34:23;;;;;;;20.43;10.10;;;;;;;0.09;94.64;98656.84;1881809;76;25345;-61
2022/12/12 10:37:13;;;;;;;51.77;47.30;;;;;;;0.11;94.77;98651.25;1881920;76;27542;-61
2022/12/12 10:40:05;;;;;;;18.12;13.05;;;;;;;0.18;95.37;98652.49;1807146;79;25757;-61
2022/12/12 10:42:39;;;;;;;62.45;56.90;;;;;;;0.22;94.78;98651.94;1735005;82;25460;-62
2022/12/12 10:46:00;;;;;;;84.32;77.47;;;;;;;0.27;95.01;98651.34;1727055;82;25839;-63
2022/12/12 10:48:28;;;;;;;16.48;8.83;;;;;;;0.34;95.22;98654.48;1690016;84;25683;-60
2022/12/12 10:51:02;;;;;;;16.80;7.25;;;;;;;0.36;94.50;98648.34;1684274;85;27541;-62
2022/12/12 10:53:29;;;;;;;10.15;9.28;;;;;;;0.39;94.18;98655.50;1683382;85;25688;-61
2022/12/12 10:56:19;;;;;;;16.30;9.20;;;;;;;0.39;94.18;98655.50;1684281;85;25648;-57
2022/12/12 10:58:58;;;;;;;15.70;7.80;;;;;;;0.40;94.23;98654.44;1684172;85;25581;-54
2022/12/12 11:01:35;;;;;;;9.50;5.80;;;;;;;0.44;94.39;98658.89;1684365;85;32442;-54
2022/12/12 11:04:04;;;;;;;18.73;7.95;;;;;;;0.46;94.44;98655.95;1684264;85;27583;-63
2022/12/12 11:06:45;;;;;;;15.45;7.83;;;;;;;0.49;94.55;98654.85;1684318;85;30141;-61
2022/12/12 11:09:28;;;;;;;14.18;8.40;;;;;;;0.51;94.43;98652.72;1683589;85;25661;-63
2022/12/12 11:12:02;;;;;;;11.80;6.70;;;;;;;0.55;94.28;98655.06;1684177;85;25741;-64
2022/12/12 11:14:48;;;;;;;14.93;6.97;;;;;;;0.58;93.90;98658.23;1684300;85;25799;-64
2022/12/12 11:17:28;;;;;;;12.50;6.62;;;;;;;0.55;93.49;98656.39;1684219;85;29652;-65
2022/12/12 11:19:58;;;;;;;14.98;6.67;;;;;;;0.53;93.32;98653.78;1674263;83;25899;-66
2022/12/12 11:22:27;;;;;;;14.75;7.70;;;;;;;0.53;93.11;98651.11;1693965;84;25611;-67
2022/12/12 11:24:55;;;;;;;15.48;8.10;;;;;;;0.49;93.16;98656.18;1804826;79;25565;-66
2022/12/12 11:27:40;;;;;;;17.07;8.05;;;;;;;0.52;93.15;98648.19;1840249;78;25387;-67
2022/12/12 11:30:14;;;;;;;16.48;8.45;;;;;;;0.50;93.00;98656.45;1807148;79;27242;-66
2022/12/12 11:32:45;;;;;;;17.30;8.63;;;;;;;0.47;92.76;98658.34;1773156;79;26226;-67
2022/12/12 11:35:34;;;;;;;16.57;8.70;;;;;;;0.47;92.89;98665.53;1807388;79;25719;-66
2022/12/12 11:38:17;;;;;;;17.10;7.85;;;;;;;0.45;92.89;98661.83;1807618;79;27401;-66
2022/12/12 11:40:48;;;;;;;19.10;8.83;;;;;;;0.42;92.80;98654.40;1807127;79;25407;-65
2022/12/12 11:43:25;;;;;;;16.73;8.48;;;;;;;0.41;92.55;98661.33;1806265;79;29798;-65
2022/12/12 11:46:17;;;;;;;15.43;7.37;;;;;;;0.38;92.75;98652.60;1807494;79;25657;-66
2022/12/12 11:48:55;;;;;;;15.85;7.67;;;;;;;0.39;92.75;98652.84;1807533;79;25566;-65
2022/12/12 11:51:43;;;;;;;13.65;7.28;;;;;;;0.38;92.73;98665.36;1807481;79;27387;-66
2022/12/12 11:54:24;;;;;;;17.42;8.28;;;;;;;0.38;92.80;98654.72;1766138;81;25600;-65
2022/12/12 11:56:56;;;;;;;19.85;8.20;;;;;;;0.38;92.78;98658.70;1765924;81;27860;-66
2022/12/12 11:59:46;;;;;;;19.23;9.15;;;;;;;0.40;92.75;98662.42;1765586;81;25516;-67
2022/12/12 12:02:52;;;;;;;16.90;8.23;;;;;;;0.38;92.61;98668.56;1755075;81;25521;-66
2022/12/12 12:05:47;;;;;;;19.02;8.45;;;;;;;0.40;92.54;98666.41;1755542;81;25710;-67
2022/12/12 12:08:41;;;;;;;19.65;9.75;;;;;;;0.37;92.69;98678.39;1755630;81;25438;-67
2022/12/12 12:11:31;;;;;;;20.08;10.05;;;;;;;0.36;92.50;98672.28;1784105;80;27513;-66
2022/12/12 12:14:24;;;;;;;16.75;9.90;;;;;;;0.34;92.60;98677.09;1787032;80;26012;-64
2022/12/12 12:17:08;;;;;;;15.93;10.10;;;;;;;0.34;92.60;98677.09;1787019;80;25454;-64